Time;durP1;ratioP1;P1;durP2;ratioP2;P2;SDS_P1;SDS_P2;PMS_P1;PMS_P2;Temp;Humidity;BMP_temperature;BMP_pressure;BME280_temperature;BME280_humidity;BME280_pressure;Samples;Min_cycle;Max_cycle;Signal;HPM_P1;HPM_P2
2022/07/10 00:02:15;;;;;;;13.05;1.80;;;9.80;99.90;;;;;;5071198;28;20375;-67
2022/07/10 00:04:43;;;;;;;10.02;2.55;;;9.80;99.90;;;;;;5071391;28;20062;-67
2022/07/10 00:07:11;;;;;;;8.93;2.35;;;9.80;99.90;;;;;;5073168;28;20029;-67
2022/07/10 00:09:39;;;;;;;7.15;1.60;;;10.00;99.90;;;;;;5075225;28;20425;-66
2022/07/10 00:12:07;;;;;;;7.82;2.28;;;10.00;99.90;;;;;;5074874;28;20767;-67
2022/07/10 00:14:34;;;;;;;11.27;3.17;;;10.00;99.90;;;;;;5074899;28;20032;-67
2022/07/10 00:17:02;;;;;;;8.13;1.83;;;10.00;99.90;;;;;;5075244;28;20055;-72
2022/07/10 00:19:30;;;;;;;9.27;1.98;;;10.00;99.90;;;;;;5056430;28;20020;-70
2022/07/10 00:21:58;;;;;;;7.85;2.03;;;10.10;99.90;;;;;;5074630;28;20094;-71
2022/07/10 00:24:25;;;;;;;13.23;2.60;;;10.20;99.90;;;;;;5075025;28;20021;-74
2022/07/10 00:26:53;;;;;;;11.90;2.75;;;10.20;99.90;;;;;;5074781;28;20112;-73
2022/07/10 00:29:21;;;;;;;8.60;3.08;;;10.20;99.90;;;;;;5076018;28;20593;-68
2022/07/10 00:31:48;;;;;;;12.05;2.72;;;10.30;99.90;;;;;;5075879;28;20036;-66
2022/07/10 00:34:16;;;;;;;15.25;3.22;;;10.30;99.90;;;;;;5073748;28;20024;-66
2022/07/10 00:36:44;;;;;;;15.45;3.55;;;10.40;99.90;;;;;;5075549;28;20025;-67
2022/07/10 00:39:12;;;;;;;14.27;2.95;;;10.40;99.90;;;;;;5072856;28;20032;-67
2022/07/10 00:41:39;;;;;;;12.48;2.90;;;10.30;99.90;;;;;;5075615;28;20477;-73
2022/07/10 00:44:07;;;;;;;21.50;3.30;;;10.30;99.90;;;;;;5074622;28;20112;-67
2022/07/10 00:46:35;;;;;;;12.48;3.58;;;10.40;99.90;;;;;;5074357;28;20025;-67
2022/07/10 00:49:03;;;;;;;14.35;3.08;;;10.50;99.90;;;;;;5074604;28;20017;-66
2022/07/10 00:51:33;;;;;;;18.42;3.03;;;10.40;99.90;;;;;;5074332;28;20030;-70
2022/07/10 00:54:01;;;;;;;23.27;2.78;;;10.40;99.90;;;;;;5074209;28;20119;-67
2022/07/10 00:56:29;;;;;;;22.48;4.63;;;10.50;99.90;;;;;;5075212;28;20025;-66
2022/07/10 00:58:57;;;;;;;17.95;3.33;;;10.50;99.90;;;;;;5074797;28;20036;-67
2022/07/10 01:01:25;;;;;;;17.48;3.65;;;10.60;99.90;;;;;;5074538;28;20055;-72
2022/07/10 01:03:53;;;;;;;13.10;3.05;;;10.60;99.90;;;;;;5072702;28;20031;-66
2022/07/10 01:06:20;;;;;;;15.82;3.25;;;10.70;99.90;;;;;;5075138;28;20025;-67
2022/07/10 01:08:48;;;;;;;22.50;4.18;;;10.70;99.90;;;;;;5074945;28;20119;-67
2022/07/10 01:11:16;;;;;;;15.73;4.22;;;10.80;99.90;;;;;;5075215;28;20453;-68
2022/07/10 01:13:45;;;;;;;17.13;4.50;;;10.90;99.90;;;;;;5075059;28;20017;-66
2022/07/10 01:16:13;;;;;;;15.07;3.53;;;11.00;99.90;;;;;;5072537;28;20542;-66
2022/07/10 01:18:41;;;;;;;24.77;4.43;;;11.20;99.90;;;;;;5074447;28;20103;-66
2022/07/10 01:21:25;;;;;;;17.02;3.35;;;11.30;99.90;;;;;;5075084;28;20604;-66
2022/07/10 01:23:53;;;;;;;12.65;3.30;;;11.30;99.90;;;;;;5072455;28;20554;-66
2022/07/10 01:26:23;;;;;;;21.50;4.80;;;11.40;99.90;;;;;;5074563;28;20037;-67
2022/07/10 01:28:52;;;;;;;18.20;3.75;;;11.50;99.90;;;;;;5074404;28;20024;-66
2022/07/10 01:31:26;;;;;;;21.23;4.22;;;11.60;99.90;;;;;;5074713;28;20061;-66
2022/07/10 01:33:55;;;;;;;19.55;3.55;;;11.60;99.90;;;;;;5072750;28;20146;-66
2022/07/10 01:36:23;;;;;;;16.30;3.00;;;11.60;99.90;;;;;;5074747;28;20037;-70
2022/07/10 01:38:56;;;;;;;14.48;2.45;;;11.60;99.90;;;;;;5071750;28;20478;-67
2022/07/10 01:41:25;;;;;;;15.80;2.83;;;11.50;99.90;;;;;;5074556;28;20036;-66
2022/07/10 01:43:52;;;;;;;15.30;3.35;;;11.60;99.90;;;;;;5074390;28;20021;-72
2022/07/10 01:46:20;;;;;;;17.40;2.72;;;11.70;99.90;;;;;;5074679;28;20024;-72
2022/07/10 01:48:48;;;;;;;15.90;3.13;;;11.70;99.90;;;;;;5073760;28;20024;-65
2022/07/10 01:51:16;;;;;;;18.42;3.83;;;11.90;99.90;;;;;;5075096;28;20085;-70
2022/07/10 01:53:44;;;;;;;13.98;2.65;;;12.00;99.90;;;;;;5074255;28;20032;-67
2022/07/10 01:56:13;;;;;;;14.90;2.25;;;12.10;99.90;;;;;;5074295;28;20032;-66
2022/07/10 01:58:41;;;;;;;19.92;3.47;;;12.20;99.90;;;;;;5073945;28;20470;-68
2022/07/10 02:01:10;;;;;;;13.07;2.22;;;12.30;99.90;;;;;;5071798;28;20053;-67
2022/07/10 02:06:23;;;;;;;14.60;2.30;;;12.30;99.90;;;;;;5073635;28;20513;-67
2022/07/10 02:08:51;;;;;;;12.57;2.63;;;12.30;99.90;;;;;;5073579;28;20037;-66
2022/07/10 02:11:19;;;;;;;9.70;2.15;;;12.10;99.90;;;;;;5074762;28;20024;-66
2022/07/10 02:13:47;;;;;;;10.80;1.73;;;11.80;99.90;;;;;;5074004;28;20063;-66
2022/07/10 02:16:15;;;;;;;11.57;3.08;;;11.70;99.90;;;;;;5073954;28;20441;-66
2022/07/10 02:18:43;;;;;;;10.65;3.17;;;11.50;99.90;;;;;;5073999;28;20023;-66
2022/07/10 02:21:10;;;;;;;10.05;2.25;;;11.40;99.90;;;;;;5073913;28;20025;-70
2022/07/10 02:23:40;;;;;;;13.38;3.05;;;11.30;99.90;;;;;;5073507;28;20056;-66
2022/07/10 02:26:08;;;;;;;11.13;2.45;;;11.20;99.90;;;;;;5073962;28;20016;-71
2022/07/10 02:28:36;;;;;;;5.95;1.75;;;11.20;99.90;;;;;;5073480;28;20016;-68
2022/07/10 02:31:04;;;;;;;19.10;3.50;;;11.10;99.90;;;;;;5072906;28;20069;-66
2022/07/10 02:33:31;;;;;;;13.10;2.05;;;11.10;99.90;;;;;;5073323;28;20454;-71
2022/07/10 02:35:59;;;;;;;9.60;2.63;;;11.10;99.90;;;;;;5072486;28;20031;-72
2022/07/10 02:38:28;;;;;;;6.88;2.13;;;11.10;99.90;;;;;;5073300;28;20023;-67
2022/07/10 02:40:55;;;;;;;12.60;2.30;;;11.10;99.90;;;;;;5073156;28;20021;-68
2022/07/10 02:43:23;;;;;;;20.00;2.38;;;11.20;99.90;;;;;;5073617;28;20430;-68
2022/07/10 02:45:51;;;;;;;12.55;2.88;;;11.40;99.90;;;;;;5073448;28;20031;-68
2022/07/10 02:48:18;;;;;;;6.53;2.45;;;11.60;99.90;;;;;;5073198;28;20044;-69
2022/07/10 02:50:46;;;;;;;15.48;3.03;;;11.60;99.90;;;;;;5073393;28;20016;-73
2022/07/10 02:53:14;;;;;;;16.38;3.97;;;11.70;99.90;;;;;;5073241;28;20031;-73
2022/07/10 02:55:42;;;;;;;12.57;2.67;;;11.70;99.90;;;;;;5073320;28;20075;-67
2022/07/10 02:58:09;;;;;;;12.48;2.55;;;11.80;99.90;;;;;;5073338;28;20451;-68
2022/07/10 03:00:38;;;;;;;19.05;4.00;;;11.80;99.90;;;;;;5072953;28;20048;-67
2022/07/10 03:03:05;;;;;;;16.33;2.67;;;11.90;99.90;;;;;;5073059;28;20027;-68
2022/07/10 03:05:33;;;;;;;13.32;3.22;;;11.90;99.90;;;;;;5073240;28;20021;-67
2022/07/10 03:08:01;;;;;;;13.02;2.72;;;11.90;99.90;;;;;;5070494;28;20020;-69
2022/07/10 03:10:28;;;;;;;11.88;2.53;;;12.00;99.90;;;;;;5072901;28;20498;-68
2022/07/10 03:12:56;;;;;;;8.20;2.13;;;12.00;99.90;;;;;;5072481;28;20364;-68
2022/07/10 03:15:24;;;;;;;10.45;2.65;;;12.00;99.90;;;;;;5072855;28;20036;-68
2022/07/10 03:17:52;;;;;;;11.93;2.80;;;12.00;99.90;;;;;;5072467;28;20019;-68
2022/07/10 03:20:19;;;;;;;9.23;1.67;;;12.00;99.90;;;;;;5070223;28;20028;-73
2022/07/10 03:22:47;;;;;;;12.80;2.38;;;12.00;99.90;;;;;;5072862;28;20024;-68
2022/07/10 03:25:15;;;;;;;11.70;2.10;;;12.00;99.90;;;;;;5072782;28;20032;-68
2022/07/10 03:27:43;;;;;;;9.15;2.40;;;12.10;99.90;;;;;;5072895;28;20066;-68
2022/07/10 03:30:11;;;;;;;7.20;2.13;;;12.00;99.90;;;;;;5072771;28;20474;-69
2022/07/10 03:32:39;;;;;;;7.43;2.03;;;12.10;99.90;;;;;;5069858;28;20016;-68
2022/07/10 03:35:07;;;;;;;19.77;2.95;;;12.10;99.90;;;;;;5072712;28;20028;-68
2022/07/10 03:37:35;;;;;;;17.30;3.30;;;12.00;99.90;;;;;;5072641;28;20079;-68
2022/07/10 03:40:02;;;;;;;7.15;2.78;;;12.00;99.90;;;;;;5072425;28;20482;-68
2022/07/10 03:42:30;;;;;;;11.25;3.00;;;12.00;99.90;;;;;;5072710;28;20418;-68
2022/07/10 03:44:58;;;;;;;11.23;2.63;;;12.10;99.90;;;;;;5072597;28;20198;-68
2022/07/10 03:47:25;;;;;;;10.43;1.73;;;12.10;99.90;;;;;;5072400;28;20020;-68
2022/07/10 03:49:53;;;;;;;10.57;2.63;;;12.00;99.90;;;;;;5070548;28;20027;-67
2022/07/10 03:52:21;;;;;;;14.23;2.33;;;12.00;99.90;;;;;;5069483;28;20029;-70
2022/07/10 03:54:48;;;;;;;6.93;1.42;;;12.00;99.90;;;;;;5072448;28;20021;-73
2022/07/10 04:00:01;;;;;;;3.20;1.17;;;11.90;99.90;;;;;;5069728;28;20046;-73
2022/07/10 04:02:29;;;;;;;8.65;1.17;;;11.90;99.90;;;;;;5072384;28;20440;-68
2022/07/10 04:04:57;;;;;;;4.13;1.42;;;11.90;99.90;;;;;;5072243;28;20076;-67
2022/07/10 04:07:24;;;;;;;6.00;1.40;;;12.00;99.90;;;;;;5072240;28;20021;-68
2022/07/10 04:09:52;;;;;;;5.07;1.08;;;12.00;99.90;;;;;;5072003;28;20012;-68
2022/07/10 04:12:20;;;;;;;4.30;1.33;;;12.10;99.90;;;;;;5069537;28;20013;-68
2022/07/10 04:14:51;;;;;;;5.75;1.50;;;12.20;99.90;;;;;;5072274;28;20165;-69
2022/07/10 04:17:22;;;;;;;6.50;1.15;;;12.30;99.90;;;;;;5071882;28;20008;-68
2022/07/10 04:19:49;;;;;;;4.88;0.95;;;12.30;99.90;;;;;;5071986;28;20071;-68
2022/07/10 04:22:17;;;;;;;3.50;1.10;;;12.40;99.90;;;;;;5072308;28;20078;-74
2022/07/10 04:24:45;;;;;;;11.93;1.48;;;12.40;99.90;;;;;;5072830;28;20028;-68
2022/07/10 04:27:13;;;;;;;3.55;1.13;;;12.40;99.90;;;;;;5072391;28;20055;-67
2022/07/10 04:29:43;;;;;;;2.80;0.90;;;12.30;99.90;;;;;;5077922;28;20060;-69
2022/07/10 04:32:11;;;;;;;3.78;1.00;;;12.10;99.90;;;;;;5075405;28;20147;-68
2022/07/10 04:34:39;;;;;;;4.65;1.08;;;11.90;99.90;;;;;;5078354;28;20410;-74
2022/07/10 04:37:10;;;;;;;3.63;0.70;;;11.70;99.90;;;;;;5073952;28;20118;-74
2022/07/10 04:39:41;;;;;;;3.92;1.00;;;11.60;99.90;;;;;;5070742;28;20060;-68
2022/07/10 04:42:09;;;;;;;6.55;1.80;;;11.50;99.90;;;;;;5080033;28;20036;-68
2022/07/10 04:44:37;;;;;;;2.80;1.05;;;11.50;99.90;;;;;;5081275;28;20492;-75
2022/07/10 04:47:06;;;;;;;7.90;1.52;;;11.50;99.90;;;;;;5071415;28;20017;-67
2022/07/10 04:49:34;;;;;;;3.88;1.00;;;11.50;99.90;;;;;;5073857;28;20421;-67
2022/07/10 04:52:02;;;;;;;7.28;1.90;;;11.60;99.90;;;;;;5082541;28;20013;-74
2022/07/10 04:54:33;;;;;;;4.22;1.92;;;11.60;99.90;;;;;;5075471;28;20025;-68
2022/07/10 04:57:00;;;;;;;8.43;1.35;;;11.60;99.90;;;;;;5073334;28;20028;-68
2022/07/10 04:59:28;;;;;;;7.53;1.73;;;11.50;99.90;;;;;;5075518;28;20095;-75
2022/07/10 05:01:56;;;;;;;3.60;1.25;;;11.40;99.90;;;;;;5074568;28;20091;-69
2022/07/10 05:04:24;;;;;;;7.20;1.13;;;11.40;99.90;;;;;;5075540;28;20027;-68
2022/07/10 05:06:51;;;;;;;4.88;1.33;;;11.40;99.90;;;;;;5075930;28;20048;-68
2022/07/10 05:09:19;;;;;;;8.45;1.90;;;11.30;99.90;;;;;;5075801;28;20055;-68
2022/07/10 05:11:47;;;;;;;5.78;1.08;;;11.20;99.90;;;;;;5075842;28;20024;-75
2022/07/10 05:14:18;;;;;;;6.57;1.20;;;11.10;99.90;;;;;;5075544;28;20032;-75
2022/07/10 05:16:46;;;;;;;4.35;1.20;;;11.10;99.90;;;;;;5075693;28;20032;-67
2022/07/10 05:19:13;;;;;;;6.35;0.98;;;11.00;99.90;;;;;;5075787;28;20025;-67
2022/07/10 05:21:41;;;;;;;6.00;1.20;;;11.10;99.90;;;;;;5075694;28;20036;-67
2022/07/10 05:24:09;;;;;;;6.18;1.73;;;11.10;99.90;;;;;;5075492;28;20024;-75
2022/07/10 05:26:36;;;;;;;4.70;1.25;;;11.10;99.90;;;;;;5075907;28;20020;-68
2022/07/10 05:29:04;;;;;;;3.10;0.80;;;11.10;99.90;;;;;;5075567;28;20039;-75
2022/07/10 05:31:32;;;;;;;5.82;1.45;;;10.90;99.90;;;;;;5075410;28;20078;-67
2022/07/10 05:34:00;;;;;;;3.13;1.00;;;10.90;99.90;;;;;;5075500;28;20457;-74
2022/07/10 05:36:27;;;;;;;2.20;0.85;;;10.90;99.90;;;;;;5075539;28;20044;-77
2022/07/10 05:38:55;;;;;;;3.35;1.42;;;10.90;99.90;;;;;;5075333;28;20021;-66
2022/07/10 05:41:23;;;;;;;2.50;1.02;;;10.90;99.90;;;;;;5075306;28;20031;-69
2022/07/10 05:43:51;;;;;;;3.75;1.33;;;10.90;99.90;;;;;;5075509;28;20024;-67
2022/07/10 05:46:18;;;;;;;4.32;2.00;;;10.90;99.90;;;;;;5075356;28;20025;-68
2022/07/10 05:48:46;;;;;;;9.25;2.13;;;10.90;99.90;;;;;;5075313;28;20032;-67
2022/07/10 05:51:14;;;;;;;8.05;1.73;;;10.90;99.90;;;;;;5075322;28;20021;-74
2022/07/10 05:53:41;;;;;;;5.93;2.00;;;10.90;99.90;;;;;;5074888;28;20039;-68
2022/07/10 05:56:09;;;;;;;4.20;1.17;;;10.90;99.90;;;;;;5074487;28;20021;-73
2022/07/10 05:58:37;;;;;;;5.95;1.92;;;10.90;99.90;;;;;;5074459;28;20027;-68
2022/07/10 06:01:04;;;;;;;2.63;1.48;;;10.90;99.90;;;;;;5074261;28;20503;-70
2022/07/10 06:03:32;;;;;;;4.47;1.23;;;11.00;99.90;;;;;;5073899;28;20026;-67
2022/07/10 06:06:00;;;;;;;4.93;1.67;;;10.90;99.90;;;;;;5073129;28;20025;-68
2022/07/10 06:08:28;;;;;;;9.98;1.55;;;10.90;99.90;;;;;;5072481;28;20071;-67
2022/07/10 06:10:55;;;;;;;4.40;1.98;;;10.90;99.90;;;;;;5071563;28;20028;-75
2022/07/10 06:13:23;;;;;;;4.72;1.83;;;10.80;99.90;;;;;;5092343;28;20474;-68
2022/07/10 06:15:51;;;;;;;6.20;1.30;;;10.80;99.90;;;;;;5071956;28;20059;-68
2022/07/10 06:18:19;;;;;;;6.13;1.33;;;10.80;99.90;;;;;;5073004;28;20046;-68
2022/07/10 06:20:46;;;;;;;6.40;1.45;;;10.80;99.90;;;;;;5070981;28;20108;-73
2022/07/10 06:23:14;;;;;;;7.20;1.65;;;10.80;99.90;;;;;;5073463;28;20044;-67
2022/07/10 06:25:42;;;;;;;9.70;3.38;;;10.80;99.90;;;;;;5072683;28;20498;-68
2022/07/10 06:28:09;;;;;;;6.88;2.03;;;10.70;99.90;;;;;;5073189;28;20386;-68
2022/07/10 06:30:37;;;;;;;6.60;1.70;;;10.70;99.90;;;;;;5073354;28;20024;-69
2022/07/10 06:33:05;;;;;;;5.22;1.55;;;10.80;99.90;;;;;;5073094;28;20038;-68
2022/07/10 06:35:32;;;;;;;6.63;2.13;;;10.70;99.90;;;;;;5073209;28;20364;-66
2022/07/10 06:38:01;;;;;;;6.28;1.35;;;10.70;99.90;;;;;;5073080;28;20016;-67
2022/07/10 06:40:30;;;;;;;4.90;1.40;;;10.70;99.90;;;;;;5073053;28;20035;-73
2022/07/10 06:42:58;;;;;;;5.35;1.35;;;10.70;99.90;;;;;;5072828;28;20141;-72
2022/07/10 06:45:25;;;;;;;2.13;0.90;;;10.70;99.90;;;;;;5072875;28;20017;-67
2022/07/10 06:47:56;;;;;;;8.75;1.90;;;10.70;99.90;;;;;;5072950;28;20017;-67
2022/07/10 06:50:32;;;;;;;4.32;1.27;;;10.60;99.90;;;;;;5072726;28;20017;-67
2022/07/10 06:52:59;;;;;;;;;;;10.60;99.90;;;;;;5073738;28;20048;-67
2022/07/10 06:55:27;;;;;;;10.23;1.67;;;10.60;99.90;;;;;;5067964;28;20361;-72
2022/07/10 06:57:56;;;;;;;7.90;2.05;;;10.60;99.90;;;;;;5072943;28;20028;-67
2022/07/10 07:00:24;;;;;;;3.80;1.20;;;10.50;99.90;;;;;;5073150;28;20062;-68
2022/07/10 07:02:52;;;;;;;4.18;1.63;;;10.50;99.90;;;;;;5073202;28;20509;-67
2022/07/10 07:05:20;;;;;;;4.72;1.95;;;10.50;99.90;;;;;;5071455;28;20070;-70
2022/07/10 07:07:48;;;;;;;4.05;1.40;;;10.50;99.90;;;;;;5073037;28;20039;-68
2022/07/10 07:10:16;;;;;;;6.38;1.85;;;10.50;99.90;;;;;;5073329;28;20021;-68
2022/07/10 07:12:43;;;;;;;5.72;1.67;;;10.50;99.90;;;;;;5072744;28;20029;-67
2022/07/10 07:15:12;;;;;;;5.82;1.63;;;10.50;99.90;;;;;;5072647;28;20028;-67
2022/07/10 07:18:31;;;;;;;7.53;1.95;;;10.60;99.90;;;;;;5072544;28;20032;-79
2022/07/10 07:23:21;;;;;;;3.03;1.30;;;10.50;99.90;;;;;;5072073;28;20040;-69
2022/07/10 07:25:49;;;;;;;4.95;1.50;;;10.50;99.90;;;;;;5072967;28;20017;-68
2022/07/10 07:28:19;;;;;;;3.30;1.55;;;10.60;99.90;;;;;;5073014;28;20146;-68
2022/07/10 07:30:48;;;;;;;4.07;1.65;;;10.50;99.90;;;;;;5072324;28;20017;-67
2022/07/10 07:33:16;;;;;;;4.40;1.30;;;10.60;99.90;;;;;;5072478;28;20028;-67
2022/07/10 07:35:44;;;;;;;6.80;1.65;;;10.60;99.90;;;;;;5072893;28;20032;-68
2022/07/10 07:38:12;;;;;;;5.88;1.88;;;10.50;99.90;;;;;;5072363;28;20020;-68
2022/07/10 07:40:39;;;;;;;3.90;1.58;;;10.50;99.90;;;;;;5073047;28;20493;-66
2022/07/10 07:43:07;;;;;;;5.00;1.67;;;10.50;99.90;;;;;;5072797;28;20028;-67
2022/07/10 07:45:35;;;;;;;8.02;1.77;;;10.50;99.90;;;;;;5072896;28;20068;-69
2022/07/10 07:48:03;;;;;;;4.60;2.08;;;10.50;99.90;;;;;;5072164;28;20027;-67
2022/07/10 07:50:36;;;;;;;4.75;1.95;;;10.50;99.90;;;;;;5072432;28;20035;-67
2022/07/10 07:53:05;;;;;;;7.10;2.25;;;10.50;99.90;;;;;;5072653;28;20023;-73
2022/07/10 07:55:34;;;;;;;7.45;2.08;;;10.50;99.90;;;;;;5071578;28;20041;-72
2022/07/10 07:58:03;;;;;;;4.25;1.63;;;10.50;99.90;;;;;;5072677;28;20091;-71
2022/07/10 08:00:31;;;;;;;6.18;1.95;;;10.50;99.90;;;;;;5072559;28;20052;-74
2022/07/10 08:03:00;;;;;;;4.45;2.17;;;10.50;99.90;;;;;;5072675;28;20055;-72
2022/07/10 08:05:28;;;;;;;7.75;2.53;;;10.50;99.90;;;;;;5072423;28;20039;-72
2022/07/10 08:08:04;;;;;;;5.00;1.73;;;10.40;99.90;;;;;;5072268;28;20029;-75
2022/07/10 08:10:32;;;;;;;9.07;3.25;;;10.50;99.90;;;;;;5070264;28;20040;-73
2022/07/10 08:13:00;;;;;;;6.80;2.90;;;10.40;99.90;;;;;;5070817;28;20021;-76
2022/07/10 08:15:28;;;;;;;8.13;3.85;;;10.40;99.90;;;;;;5071022;28;20036;-75
2022/07/10 08:17:57;;;;;;;16.42;5.40;;;10.40;99.90;;;;;;5071786;28;20066;-75
2022/07/10 08:20:26;;;;;;;10.15;3.30;;;10.40;99.90;;;;;;5070256;28;20020;-76
2022/07/10 08:22:54;;;;;;;7.03;3.45;;;10.40;99.90;;;;;;5085727;28;20030;-74
2022/07/10 08:25:22;;;;;;;13.82;4.80;;;10.40;99.90;;;;;;5073774;28;20457;-75
2022/07/10 08:27:50;;;;;;;6.15;2.50;;;10.40;99.90;;;;;;5086817;28;20471;-78
2022/07/10 08:30:18;;;;;;;4.78;2.08;;;10.40;99.90;;;;;;5084900;28;20024;-76
2022/07/10 08:32:46;;;;;;;12.38;3.28;;;10.40;99.90;;;;;;5080544;28;20028;-76
2022/07/10 08:35:14;;;;;;;4.43;2.33;;;10.40;99.90;;;;;;5091397;28;20055;-76
2022/07/10 08:37:43;;;;;;;6.07;2.10;;;10.40;99.90;;;;;;5079347;28;20099;-76
2022/07/10 08:40:13;;;;;;;11.70;3.78;;;10.40;99.90;;;;;;5085933;28;20089;-76
2022/07/10 08:42:44;;;;;;;7.03;2.50;;;10.40;99.90;;;;;;5087904;28;20551;-76
2022/07/10 08:45:12;;;;;;;4.95;2.60;;;10.40;99.90;;;;;;5077580;28;20033;-76
2022/07/10 08:47:46;;;;;;;7.20;2.60;;;10.40;99.90;;;;;;5089324;28;20070;-77
2022/07/10 08:50:34;;;;;;;8.05;2.30;;;10.40;99.90;;;;;;5083985;28;20059;-77
2022/07/10 08:53:22;;;;;;;7.07;2.92;;;10.40;99.90;;;;;;5078613;28;20074;-77
2022/07/10 08:55:50;;;;;;;4.72;2.92;;;10.40;99.90;;;;;;5066392;28;20053;-77
2022/07/10 08:58:20;;;;;;;4.63;2.28;;;10.40;99.90;;;;;;5085053;28;20091;-76
2022/07/10 09:00:54;;;;;;;8.90;2.90;;;10.40;99.90;;;;;;5074119;28;20056;-70
2022/07/10 09:03:22;;;;;;;7.03;5.13;;;10.40;99.90;;;;;;5090536;28;20021;-76
2022/07/10 09:05:51;;;;;;;6.70;3.72;;;10.40;99.90;;;;;;5073881;28;20017;-73
2022/07/10 09:08:33;;;;;;;7.88;6.40;;;10.30;99.90;;;;;;5084570;28;20549;-76
2022/07/10 09:11:17;;;;;;;5.07;2.38;;;10.30;99.90;;;;;;5070974;28;20037;-71
2022/07/10 09:13:55;;;;;;;8.18;3.33;;;10.40;99.90;;;;;;5072096;28;20017;-70
2022/07/10 09:16:33;;;;;;;9.57;2.20;;;10.40;99.90;;;;;;5068169;28;20441;-76
2022/07/10 09:19:23;;;;;;;5.88;2.92;;;10.40;99.90;;;;;;5066631;28;20033;-77
2022/07/10 09:21:53;;;;;;;4.57;2.60;;;10.40;99.90;;;;;;5068277;28;20032;-77
2022/07/10 09:24:21;;;;;;;6.28;2.45;;;10.30;99.90;;;;;;5070326;28;20029;-69
2022/07/10 09:27:09;;;;;;;8.60;2.10;;;10.30;99.90;;;;;;5055568;28;20029;-78
2022/07/10 09:29:48;;;;;;;5.03;2.13;;;10.30;99.90;;;;;;5065685;28;20088;-72
2022/07/10 09:32:19;;;;;;;6.80;2.70;;;10.30;99.90;;;;;;5085787;28;20509;-73
2022/07/10 09:34:49;;;;;;;4.15;2.28;;;10.30;99.90;;;;;;5078803;28;20475;-75
2022/07/10 09:37:28;;;;;;;4.85;2.25;;;10.40;99.90;;;;;;5076989;28;20025;-70
2022/07/10 09:40:02;;;;;;;8.75;3.03;;;10.30;99.90;;;;;;5080450;28;20016;-77
2022/07/10 09:42:37;;;;;;;6.47;2.42;;;10.30;99.90;;;;;;5087704;28;20021;-79
2022/07/10 09:45:16;;;;;;;8.47;3.33;;;10.30;99.90;;;;;;5072249;28;20021;-76
2022/07/10 09:47:45;;;;;;;7.68;2.70;;;10.30;99.90;;;;;;5072614;28;20024;-77
2022/07/10 09:50:24;;;;;;;7.85;2.65;;;10.30;99.90;;;;;;5073865;28;20056;-77
2022/07/10 09:52:54;;;;;;;15.27;3.47;;;10.40;99.90;;;;;;5073887;28;20024;-72
2022/07/10 09:55:23;;;;;;;9.43;3.42;;;10.30;99.90;;;;;;5058585;28;20071;-71
2022/07/10 09:57:57;;;;;;;8.27;3.38;;;10.30;99.90;;;;;;5056946;28;20501;-74
2022/07/10 10:00:33;;;;;;;7.73;3.23;;;10.40;99.90;;;;;;5065804;28;20055;-75
2022/07/10 10:03:06;;;;;;;11.80;2.95;;;10.30;99.90;;;;;;5054388;28;20028;-78
2022/07/10 10:05:55;;;;;;;12.82;3.35;;;10.30;99.90;;;;;;5054972;28;20436;-70
2022/07/10 10:08:32;;;;;;;9.73;2.72;;;10.30;99.90;;;;;;5056524;28;20387;-77
2022/07/10 10:11:00;;;;;;;6.22;1.98;;;10.30;99.90;;;;;;5055646;28;20377;-75
2022/07/10 10:13:30;;;;;;;5.28;2.08;;;10.30;99.90;;;;;;5059874;28;20103;-79
2022/07/10 10:15:57;;;;;;;5.35;2.35;;;10.20;99.90;;;;;;5057802;28;20029;-80
2022/07/10 10:18:26;;;;;;;7.72;2.22;;;10.20;99.90;;;;;;5060277;28;20112;-78
2022/07/10 10:20:55;;;;;;;5.65;1.90;;;10.20;99.90;;;;;;5060042;28;20086;-76
2022/07/10 10:23:24;;;;;;;11.60;2.40;;;10.20;99.90;;;;;;5060062;28;20021;-75
2022/07/10 10:25:58;;;;;;;5.45;2.03;;;10.20;99.90;;;;;;5056479;28;20025;-75
2022/07/10 10:28:27;;;;;;;5.38;2.50;;;10.30;99.90;;;;;;5057576;28;20103;-73
2022/07/10 10:31:00;;;;;;;7.82;3.20;;;10.30;99.90;;;;;;5072585;28;20119;-72
2022/07/10 10:33:40;;;;;;;6.28;2.10;;;10.20;99.90;;;;;;5039907;28;20127;-77
2022/07/10 10:36:07;;;;;;;8.77;3.05;;;10.20;99.90;;;;;;5052889;28;20043;-76
2022/07/10 10:38:55;;;;;;;3.78;1.48;;;10.20;99.90;;;;;;5054580;28;20363;-75
2022/07/10 10:41:32;;;;;;;8.48;2.80;;;10.30;99.90;;;;;;5059336;28;20025;-77
2022/07/10 10:44:13;;;;;;;8.15;1.63;;;10.20;99.90;;;;;;5054513;28;20064;-78
2022/07/10 10:47:06;;;;;;;11.23;2.17;;;10.30;99.90;;;;;;5036394;28;20057;-76
2022/07/10 10:49:50;;;;;;;4.75;2.05;;;10.20;99.90;;;;;;5054195;28;20474;-69
2022/07/10 10:52:18;;;;;;;7.75;2.35;;;10.30;99.90;;;;;;5055201;28;20147;-73
2022/07/10 10:54:57;;;;;;;4.38;1.73;;;10.20;99.90;;;;;;5054295;28;20028;-78
2022/07/10 10:57:47;;;;;;;6.57;1.73;;;10.30;99.90;;;;;;5056799;28;20021;-77
2022/07/10 11:00:30;;;;;;;8.18;1.88;;;10.20;99.90;;;;;;5054019;28;20041;-78
2022/07/10 11:03:17;;;;;;;5.55;1.98;;;10.30;99.90;;;;;;5054385;28;20037;-71
2022/07/10 11:05:46;;;;;;;6.22;2.03;;;10.20;99.90;;;;;;5060130;28;20087;-78
2022/07/10 11:08:14;;;;;;;8.43;2.30;;;10.20;99.90;;;;;;5068752;28;20016;-79
2022/07/10 11:10:43;;;;;;;5.50;2.60;;;10.10;99.90;;;;;;5070544;28;20028;-77
2022/07/10 11:13:15;;;;;;;4.80;2.35;;;10.10;99.90;;;;;;5069937;28;20599;-77
2022/07/10 11:15:48;;;;;;;6.20;1.90;;;10.00;99.90;;;;;;5070447;28;20024;-78
2022/07/10 11:18:22;;;;;;;11.05;2.95;;;10.00;99.90;;;;;;5071575;28;20025;-77
2022/07/10 11:20:53;;;;;;;4.10;1.73;;;10.10;99.90;;;;;;5043430;28;20020;-78
2022/07/10 11:23:38;;;;;;;4.53;1.80;;;10.10;99.90;;;;;;5069881;28;20025;-79
2022/07/10 11:26:21;;;;;;;2.33;1.83;;;10.10;99.90;;;;;;5069420;28;20047;-78
2022/07/10 11:28:54;;;;;;;6.15;1.98;;;10.10;99.90;;;;;;5069752;28;20479;-72
2022/07/10 11:31:23;;;;;;;6.03;1.70;;;10.10;99.90;;;;;;5071778;28;20086;-78
2022/07/10 11:33:53;;;;;;;3.60;1.73;;;10.10;99.90;;;;;;5069674;28;20151;-78
2022/07/10 11:36:34;;;;;;;4.57;1.50;;;10.00;99.90;;;;;;5070393;28;20059;-75
2022/07/10 11:39:07;;;;;;;3.63;1.67;;;10.00;99.90;;;;;;5066117;28;20091;-75
2022/07/10 11:41:42;;;;;;;5.00;1.40;;;10.00;99.90;;;;;;5062210;28;20529;-74
2022/07/10 11:44:18;;;;;;;5.10;1.80;;;10.00;99.90;;;;;;5065483;28;20025;-78
2022/07/10 11:46:48;;;;;;;7.88;3.45;;;10.00;99.90;;;;;;5058168;28;20456;-76
2022/07/10 11:49:17;;;;;;;4.50;2.65;;;9.90;99.90;;;;;;5061309;28;20025;-78
2022/07/10 11:51:45;;;;;;;6.78;1.80;;;9.90;99.90;;;;;;5057661;28;20021;-78
2022/07/10 11:54:18;;;;;;;5.30;2.08;;;9.90;99.90;;;;;;5054335;28;20084;-77
2022/07/10 11:56:53;;;;;;;6.28;2.50;;;9.80;99.90;;;;;;5069928;28;20032;-78
2022/07/10 11:59:28;;;;;;;4.90;2.20;;;9.80;99.90;;;;;;5072170;28;20025;-72
2022/07/10 12:01:56;;;;;;;5.38;1.92;;;9.80;99.90;;;;;;5060033;28;20083;-73
2022/07/10 12:04:26;;;;;;;8.20;2.28;;;9.80;99.90;;;;;;5064527;28;20048;-70
2022/07/10 12:06:55;;;;;;;4.50;2.13;;;9.80;99.90;;;;;;5060079;28;20025;-74
2022/07/10 12:09:23;;;;;;;4.90;1.77;;;9.70;99.90;;;;;;5073275;28;20444;-69
2022/07/10 12:12:06;;;;;;;8.63;2.30;;;9.70;99.90;;;;;;5068369;28;20033;-73
2022/07/10 12:14:34;;;;;;;7.32;1.90;;;9.60;99.90;;;;;;5058225;28;20020;-74
2022/07/10 12:17:10;;;;;;;5.45;1.92;;;9.60;99.90;;;;;;5061087;28;20067;-78
2022/07/10 12:19:38;;;;;;;;;;;9.60;99.90;;;;;;5055613;28;20051;-78
2022/07/10 12:22:09;;;;;;;3.10;1.75;;;9.50;99.90;;;;;;5084944;28;20363;-76
2022/07/10 12:24:36;;;;;;;7.88;1.58;;;9.50;99.90;;;;;;5074435;28;20053;-76
2022/07/10 12:27:04;;;;;;;6.07;1.83;;;9.50;99.90;;;;;;5077248;28;20021;-78
2022/07/10 12:29:31;;;;;;;3.47;1.83;;;9.50;99.90;;;;;;5059439;28;20029;-77
2022/07/10 12:32:03;;;;;;;3.20;1.30;;;9.60;99.90;;;;;;5068529;28;20051;-78
2022/07/10 12:34:46;;;;;;;5.28;1.65;;;9.60;99.90;;;;;;5063177;28;20036;-76
2022/07/10 12:37:16;;;;;;;5.30;1.52;;;9.50;99.90;;;;;;5078330;28;20033;-75
2022/07/10 12:39:53;;;;;;;2.13;1.30;;;9.50;99.90;;;;;;5067115;28;20398;-78
2022/07/10 12:42:33;;;;;;;4.68;1.58;;;9.50;99.90;;;;;;5072109;28;20068;-67
2022/07/10 12:45:13;;;;;;;6.20;1.50;;;9.40;99.90;;;;;;5068199;28;20029;-76
2022/07/10 12:47:48;;;;;;;5.28;2.00;;;9.40;99.90;;;;;;5073094;28;20028;-76
2022/07/10 12:50:20;;;;;;;8.53;2.47;;;9.50;99.90;;;;;;5075906;28;20107;-77
2022/07/10 12:52:48;;;;;;;7.45;1.95;;;9.40;99.90;;;;;;5050702;28;20037;-76
2022/07/10 12:55:16;;;;;;;6.80;2.50;;;9.50;99.90;;;;;;5053977;28;20391;-78
2022/07/10 12:57:54;;;;;;;6.82;2.42;;;9.50;99.90;;;;;;5054531;28;20031;-77
2022/07/10 13:00:32;;;;;;;5.75;2.28;;;9.50;99.90;;;;;;5054411;28;20114;-74
2022/07/10 13:03:01;;;;;;;4.82;2.10;;;9.40;99.90;;;;;;5053986;28;20025;-77
2022/07/10 13:05:34;;;;;;;3.03;1.70;;;9.40;99.90;;;;;;5055021;28;20083;-74
2022/07/10 13:08:24;;;;;;;5.07;2.03;;;9.40;99.90;;;;;;5036667;28;20619;-77
2022/07/10 13:10:58;;;;;;;6.10;2.08;;;9.40;99.90;;;;;;5066505;28;20020;-73